Terminal Aerodrome Forecast
Issued by NWS

Home | Current Version | Previous Version | Text Only | Print | Product List | Glossary On
Versions: 1 2 3 4 5 6 7 8 9 10 11 12 13 14 15 16 17 18 19 20 21 22 23 24 25 26 27 28 29 30 31 32 33 34 35 36 37 38 39 40
000
FTUS43 KDDC 241436 AAB
TAFHYS
TAF AMD
KHYS 241436Z 2415/2512 32017G22KT P6SM -SN OVC011
      TEMPO 2415/2418 4SM -SHSN
     FM241800 34021G31KT P6SM OVC020
     FM242100 35022G32KT P6SM BKN035
     FM250100 34013G21KT P6SM OVC150
     FM250400 34009KT P6SM BKN200=

USA.gov is the U.S. government's official web portal to all federal, state and local government web resources and services.